createdAt,value
2023-04-21T00:04:13.857Z,80.04
2023-04-21T00:09:15.807Z,80.09
2023-04-21T00:14:17.923Z,79.87
2023-04-21T00:19:20.372Z,78.17
2023-04-21T00:24:22.194Z,77.66
2023-04-21T00:29:23.779Z,78.93
2023-04-21T00:34:25.645Z,80.46
2023-04-21T00:39:27.311Z,81.85
2023-04-21T00:44:29.090Z,82.94
2023-04-21T00:49:32.741Z,84.61
2023-04-21T00:54:36.171Z,84.31
2023-04-21T00:59:37.868Z,85.82
2023-04-21T01:04:43.132Z,86.31
2023-04-21T01:09:44.819Z,87.84
2023-04-21T01:14:46.483Z,89.29
2023-04-21T01:19:48.529Z,90.40
2023-04-21T01:24:50.578Z,91.47
2023-04-21T01:29:52.814Z,92.49
2023-04-21T01:34:55.617Z,94.05
2023-04-21T01:39:59.233Z,94.50
2023-04-21T01:45:01.496Z,96.66
2023-04-21T01:50:04.034Z,96.97
2023-04-21T01:55:06.182Z,97.66
2023-04-21T02:00:09.990Z,98.26
2023-04-21T02:05:19.677Z,96.56
2023-04-21T02:10:21.456Z,97.81
2023-04-21T02:15:23.216Z,98.48
2023-04-21T02:20:24.984Z,99.34
2023-04-21T02:25:26.731Z,98.83
2023-04-21T02:30:28.518Z,98.94
2023-04-21T02:35:30.252Z,99.34
2023-04-21T02:40:32.661Z,99.13
2023-04-21T02:45:34.327Z,98.00
2023-04-21T02:50:36.488Z,96.71
2023-04-21T02:55:38.100Z,97.57
2023-04-21T03:00:40.115Z,97.18
2023-04-21T03:05:42.976Z,97.28
2023-04-21T03:10:44.575Z,97.25
2023-04-21T03:15:48.931Z,96.79
2023-04-21T03:20:51.295Z,97.15
2023-04-21T03:25:52.925Z,96.98
2023-04-21T03:30:54.554Z,98.20
2023-04-21T03:35:56.149Z,98.56
2023-04-21T03:40:57.744Z,98.50
2023-04-21T03:45:59.405Z,98.72
2023-04-21T03:51:01.101Z,99.27
2023-04-21T03:56:02.955Z,99.13
2023-04-21T04:01:06.537Z,100.00
2023-04-21T04:06:08.150Z,100.00
2023-04-21T04:11:09.784Z,100.00
2023-04-21T04:16:12.579Z,100.00
2023-04-21T04:21:14.231Z,100.00
2023-04-21T04:26:16.166Z,100.00
2023-04-21T04:31:18.046Z,100.00
2023-04-21T04:36:19.981Z,100.00
2023-04-21T04:41:22.593Z,100.00
2023-04-21T04:46:24.847Z,100.00
2023-04-21T04:51:26.872Z,100.00
2023-04-21T04:56:30.719Z,100.00
2023-04-21T05:01:32.408Z,100.00
2023-04-21T05:06:34.192Z,100.00
2023-04-21T05:11:35.845Z,100.00
2023-04-21T05:16:37.628Z,100.00
2023-04-21T05:21:39.369Z,100.00
2023-04-21T05:26:43.954Z,100.00
2023-04-21T05:31:45.714Z,100.00
2023-04-21T05:36:48.997Z,100.00
2023-04-21T05:41:50.664Z,100.00
2023-04-21T05:46:52.337Z,100.00
2023-04-21T05:51:53.942Z,100.00
2023-04-21T05:56:55.718Z,100.00
2023-04-21T06:01:57.494Z,100.00
2023-04-21T06:07:07.418Z,100.00
2023-04-21T06:12:09.095Z,100.00
2023-04-21T06:17:10.908Z,100.00
2023-04-21T06:22:12.502Z,100.00
2023-04-21T06:27:14.557Z,100.00
2023-04-21T06:32:16.136Z,100.00
2023-04-21T06:37:18.188Z,100.00
2023-04-21T06:42:19.899Z,100.00
2023-04-21T06:47:21.734Z,100.00
2023-04-21T06:52:23.540Z,100.00
2023-04-21T06:57:25.114Z,100.00
2023-04-21T07:02:26.816Z,100.00
2023-04-21T07:07:28.473Z,100.00
2023-04-21T07:12:30.317Z,100.00
2023-04-21T07:17:32.027Z,100.00
2023-04-21T07:22:34.663Z,100.00
2023-04-21T07:27:37.712Z,100.00
2023-04-21T07:32:39.356Z,100.00
2023-04-21T07:37:42.919Z,100.00
2023-04-21T07:42:44.528Z,100.00
2023-04-21T07:47:46.430Z,100.00
2023-04-21T07:52:48.223Z,100.00
2023-04-21T07:57:50.502Z,100.00
2023-04-21T08:02:55.381Z,100.00
2023-04-21T08:08:00.523Z,100.00
2023-04-21T08:13:03.362Z,100.00
2023-04-21T08:18:05.298Z,100.00
2023-04-21T08:23:07.071Z,97.68
2023-04-21T08:28:08.741Z,98.06
2023-04-21T08:33:13.744Z,98.67
2023-04-21T08:38:15.774Z,97.98
2023-04-21T08:43:17.430Z,98.09
2023-04-21T08:48:22.142Z,95.53
2023-04-21T08:53:25.250Z,93.69
2023-04-21T08:58:26.951Z,93.74
2023-04-21T09:03:29.141Z,92.08
2023-04-21T09:08:31.905Z,92.10
2023-04-21T09:13:35.963Z,89.69
2023-04-21T09:18:40.579Z,89.47
2023-04-21T09:23:50.635Z,88.87
2023-04-21T09:28:52.967Z,87.37
2023-04-21T09:33:59.349Z,87.47
2023-04-21T09:44:09.672Z,88.02
2023-04-21T09:49:17.703Z,88.13
2023-04-21T09:59:32.413Z,86.64
2023-04-21T10:04:36.355Z,86.87
2023-04-21T10:09:58.166Z,86.57
2023-04-21T10:15:06.730Z,85.35
2023-04-21T10:20:09.869Z,84.28
2023-04-21T10:25:14.357Z,83.84
2023-04-21T10:30:24.216Z,83.30
2023-04-21T10:35:26.139Z,83.11
2023-04-21T10:40:44.844Z,80.75
2023-04-21T10:45:46.505Z,80.53
2023-04-21T10:50:48.843Z,79.91
2023-04-21T10:55:50.644Z,80.29
2023-04-21T11:00:55.714Z,81.43
2023-04-21T11:05:57.409Z,80.90
2023-04-21T11:10:59.029Z,82.07
2023-04-21T11:16:01.969Z,82.44
2023-04-21T11:21:18.359Z,81.79
2023-04-21T11:26:31.615Z,82.28
2023-04-21T11:31:33.981Z,81.10
2023-04-21T11:36:37.569Z,80.41
2023-04-21T11:41:44.038Z,80.39
2023-04-21T11:46:46.787Z,78.80
2023-04-21T11:51:50.344Z,80.54
2023-04-21T11:56:52.348Z,77.26
2023-04-21T12:01:54.714Z,77.23
2023-04-21T12:07:01.493Z,79.03
2023-04-21T12:12:05.465Z,75.17
2023-04-21T12:17:07.314Z,75.20
2023-04-21T12:22:09.648Z,75.29
2023-04-21T12:27:12.811Z,71.72
2023-04-21T12:32:15.323Z,70.75
2023-04-21T12:37:18.235Z,71.14
2023-04-21T12:42:19.895Z,70.08
2023-04-21T12:47:22.743Z,71.35
2023-04-21T12:52:24.523Z,70.71
2023-04-21T12:57:26.352Z,70.45
2023-04-21T13:02:28.500Z,69.44
2023-04-21T13:07:31.459Z,71.77
2023-04-21T13:12:33.498Z,72.23
2023-04-21T13:17:35.206Z,72.16
2023-04-21T13:22:36.955Z,71.13
2023-04-21T13:27:40.062Z,70.83
2023-04-21T13:32:44.212Z,70.40
2023-04-21T13:37:45.954Z,70.31
2023-04-21T13:42:47.701Z,69.75
2023-04-21T13:47:50.011Z,69.17
2023-04-21T13:52:51.694Z,67.81
2023-04-21T13:57:53.356Z,68.25
2023-04-21T14:02:56.083Z,67.25
2023-04-21T14:07:59.816Z,67.18
2023-04-21T14:13:01.415Z,67.15
2023-04-21T14:18:03.537Z,65.73
2023-04-21T14:23:05.806Z,66.72
2023-04-21T14:28:08.813Z,66.17
2023-04-21T14:33:10.724Z,65.71
2023-04-21T14:38:12.450Z,64.90
2023-04-21T14:43:14.066Z,64.62
2023-04-21T14:48:15.719Z,65.62
2023-04-21T14:53:17.492Z,65.39
2023-04-21T14:58:19.495Z,65.67
2023-04-21T15:03:21.389Z,65.59
2023-04-21T15:08:23.244Z,65.63
2023-04-21T15:13:24.945Z,65.99
2023-04-21T15:18:26.600Z,66.60
2023-04-21T15:23:29.199Z,66.40
2023-04-21T15:28:31.152Z,66.37
2023-04-21T15:33:33.173Z,66.83
2023-04-21T15:38:34.844Z,66.84
2023-04-21T15:43:36.536Z,66.86
2023-04-21T15:48:38.202Z,69.37
2023-04-21T15:53:47.247Z,68.80
2023-04-21T15:58:49.710Z,67.99
2023-04-21T16:03:51.986Z,68.21
2023-04-21T16:08:53.813Z,67.47
2023-04-21T16:13:56.393Z,66.51
2023-04-21T16:18:58.098Z,66.27
2023-04-21T16:23:59.886Z,67.19
2023-04-21T16:29:01.676Z,71.28
2023-04-21T16:34:03.423Z,76.87
2023-04-21T16:39:05.130Z,84.99
2023-04-21T16:44:06.729Z,88.68
2023-04-21T16:49:08.751Z,87.63
2023-04-21T16:54:14.039Z,91.16
2023-04-21T16:59:19.617Z,89.10
2023-04-21T17:04:21.365Z,89.99
2023-04-21T17:09:23.181Z,89.88
2023-04-21T17:14:24.966Z,89.09
2023-04-21T17:19:26.806Z,85.90
2023-04-21T17:24:35.363Z,84.36
2023-04-21T17:29:39.908Z,87.17
2023-04-21T17:34:41.649Z,87.00
2023-04-21T17:39:43.397Z,86.75
2023-04-21T17:44:45.073Z,84.69
2023-04-21T17:49:46.728Z,85.84
2023-04-21T17:54:48.920Z,86.50
2023-04-21T17:59:50.713Z,87.85
2023-04-21T18:04:52.600Z,87.54
2023-04-21T18:09:54.291Z,85.17
2023-04-21T18:14:56.090Z,83.96
2023-04-21T18:19:57.900Z,85.22
2023-04-21T18:24:59.630Z,83.39
2023-04-21T18:30:01.376Z,84.94
2023-04-21T18:35:04.782Z,86.95
2023-04-21T18:40:07.401Z,86.24
2023-04-21T18:45:09.630Z,87.81
2023-04-21T18:50:12.776Z,88.72
2023-04-21T18:55:15.470Z,88.53
2023-04-21T19:00:17.221Z,89.28
2023-04-21T19:05:19.449Z,90.61
2023-04-21T19:10:21.243Z,88.83
2023-04-21T19:15:22.854Z,90.40
2023-04-21T19:20:24.465Z,87.85
2023-04-21T19:25:26.283Z,88.89
2023-04-21T19:30:28.456Z,91.18
2023-04-21T19:35:30.164Z,93.30
2023-04-21T19:40:32.186Z,88.87
2023-04-21T19:45:37.761Z,82.98
2023-04-21T19:50:39.483Z,80.95
2023-04-21T19:55:43.282Z,78.54
2023-04-21T20:00:46.360Z,79.83
2023-04-21T20:05:50.380Z,77.89
2023-04-21T20:10:52.007Z,76.99
2023-04-21T20:15:53.662Z,79.09
2023-04-21T20:20:55.354Z,79.92
2023-04-21T20:25:58.007Z,82.16
2023-04-21T20:30:59.870Z,82.30
2023-04-21T20:36:07.207Z,83.71
2023-04-21T20:41:09.200Z,82.46
2023-04-21T20:46:11.182Z,82.01
2023-04-21T20:51:13.632Z,83.08
2023-04-21T20:56:15.559Z,83.38
2023-04-21T21:01:18.212Z,80.85
2023-04-21T21:06:20.162Z,82.64
2023-04-21T21:11:21.781Z,81.47
2023-04-21T21:16:23.713Z,84.04
2023-04-21T21:21:25.366Z,83.38
2023-04-21T21:26:27.211Z,84.53
2023-04-21T21:31:29.390Z,83.56
2023-04-21T21:36:32.694Z,83.86
2023-04-21T21:41:34.352Z,84.29
2023-04-21T21:46:36.403Z,84.53
2023-04-21T21:51:38.158Z,85.29
2023-04-21T21:56:39.789Z,86.30
2023-04-21T22:01:42.059Z,87.45
2023-04-21T22:06:45.258Z,86.46
2023-04-21T22:11:46.822Z,86.96
2023-04-21T22:16:48.921Z,86.65
2023-04-21T22:21:52.383Z,87.21
2023-04-21T22:26:53.951Z,86.79
2023-04-21T22:31:55.735Z,87.09
2023-04-21T22:36:57.703Z,87.56
2023-04-21T22:41:59.432Z,87.22
2023-04-21T22:47:01.185Z,87.67
2023-04-21T22:52:02.828Z,87.38
2023-04-21T22:57:04.773Z,87.56
2023-04-21T23:02:06.544Z,88.44
2023-04-21T23:07:08.382Z,88.59
2023-04-21T23:12:10.010Z,89.05
2023-04-21T23:17:11.749Z,88.95
2023-04-21T23:22:13.775Z,89.60
2023-04-21T23:27:15.371Z,90.44
2023-04-21T23:32:17.201Z,90.93
2023-04-21T23:37:19.512Z,90.62
2023-04-21T23:42:21.259Z,91.29
2023-04-21T23:47:22.851Z,90.58
2023-04-21T23:52:24.748Z,90.92
2023-04-21T23:57:26.789Z,91.63
